Time;durP1;ratioP1;P1;durP2;ratioP2;P2;SDS_P1;SDS_P2;PMS_P1;PMS_P2;Temp;Humidity;BMP_temperature;BMP_pressure;BME280_temperature;BME280_humidity;BME280_pressure;Samples;Min_cycle;Max_cycle;Signal;HPM_P1;HPM_P2
2022/07/04 00:01:43;;;;;;;3.17;1.03;;;20.00;54.80;;;;;;5085010;28;20452;-68
2022/07/04 00:04:10;;;;;;;1.90;1.10;;;20.00;55.00;;;;;;5084924;28;20485;-69
2022/07/04 00:06:37;;;;;;;2.50;1.20;;;20.00;55.20;;;;;;5085120;28;20452;-69
2022/07/04 00:09:04;;;;;;;2.23;1.20;;;19.90;55.30;;;;;;5083486;28;20445;-69
2022/07/04 00:11:31;;;;;;;1.63;1.30;;;19.80;55.50;;;;;;5084729;28;20425;-68
2022/07/04 00:13:57;;;;;;;1.37;1.20;;;19.70;55.80;;;;;;5083198;28;20469;-69
2022/07/04 00:16:24;;;;;;;2.33;1.33;;;19.60;56.20;;;;;;5080334;28;20539;-69
2022/07/04 00:18:52;;;;;;;1.20;0.90;;;19.50;56.30;;;;;;5084929;28;20453;-69
2022/07/04 00:21:19;;;;;;;2.87;1.10;;;19.50;56.30;;;;;;5085040;28;20513;-69
2022/07/04 00:23:46;;;;;;;1.90;1.10;;;19.40;56.40;;;;;;5084076;28;20493;-68
2022/07/04 00:26:13;;;;;;;1.00;0.87;;;19.40;56.50;;;;;;5083257;28;20452;-68
2022/07/04 00:28:40;;;;;;;2.50;1.30;;;19.30;56.40;;;;;;5085068;28;20451;-68
2022/07/04 00:31:06;;;;;;;1.40;1.10;;;19.30;56.40;;;;;;5085496;28;20815;-68
2022/07/04 00:33:33;;;;;;;1.87;1.37;;;19.30;56.50;;;;;;5085347;28;20468;-68
2022/07/04 00:36:01;;;;;;;1.63;1.40;;;19.30;56.50;;;;;;5085834;28;20481;-68
2022/07/04 00:38:28;;;;;;;1.70;0.90;;;19.30;56.60;;;;;;5085948;28;20451;-69
2022/07/04 00:40:55;;;;;;;2.90;1.30;;;19.20;56.50;;;;;;5085799;28;20449;-69
2022/07/04 00:43:24;;;;;;;1.20;1.10;;;19.20;57.00;;;;;;5086161;28;20476;-68
2022/07/04 00:45:51;;;;;;;0.90;0.80;;;19.20;56.50;;;;;;5086619;28;20475;-68
2022/07/04 00:48:18;;;;;;;6.00;1.77;;;19.20;56.50;;;;;;5087234;28;20480;-68
2022/07/04 00:50:46;;;;;;;1.57;1.20;;;19.20;56.70;;;;;;5090635;28;20535;-68
2022/07/04 00:53:15;;;;;;;3.03;1.10;;;19.20;56.70;;;;;;5089501;28;20452;-68
2022/07/04 00:55:43;;;;;;;3.90;1.20;;;19.10;56.70;;;;;;5090106;28;20460;-68
2022/07/04 00:58:11;;;;;;;2.20;1.60;;;19.10;56.80;;;;;;5089583;28;20463;-68
2022/07/04 01:00:37;;;;;;;2.00;1.17;;;19.10;56.80;;;;;;5088461;28;20449;-68
2022/07/04 01:03:05;;;;;;;1.10;0.83;;;19.10;57.40;;;;;;5088539;28;20491;-68
2022/07/04 01:05:32;;;;;;;1.10;1.00;;;19.10;56.90;;;;;;5089256;28;20431;-68
2022/07/04 01:08:00;;;;;;;2.87;1.07;;;19.00;56.90;;;;;;5089098;28;20449;-68
2022/07/04 01:10:28;;;;;;;1.37;0.93;;;19.10;57.10;;;;;;5088395;28;20490;-68
2022/07/04 01:12:55;;;;;;;1.30;1.20;;;19.00;57.10;;;;;;5088826;28;20447;-68
2022/07/04 01:15:22;;;;;;;1.63;1.27;;;19.00;57.40;;;;;;5088855;28;20468;-68
2022/07/04 01:17:49;;;;;;;1.03;0.90;;;19.00;57.50;;;;;;5088815;28;20445;-69
2022/07/04 01:20:18;;;;;;;2.13;1.50;;;19.00;57.80;;;;;;5089054;28;20467;-69
2022/07/04 01:22:44;;;;;;;1.97;1.00;;;18.90;57.70;;;;;;5089220;28;20476;-69
2022/07/04 01:25:13;;;;;;;2.80;1.20;;;18.90;57.80;;;;;;5089696;28;20475;-69
2022/07/04 01:27:40;;;;;;;3.13;1.20;;;18.80;57.80;;;;;;5089447;28;20444;-69
2022/07/04 01:30:08;;;;;;;1.47;1.20;;;18.80;57.90;;;;;;5088636;28;20822;-69
2022/07/04 01:32:35;;;;;;;3.57;1.30;;;18.70;58.00;;;;;;5089269;28;20451;-68
2022/07/04 01:35:02;;;;;;;2.63;1.50;;;18.70;58.20;;;;;;5088899;28;20552;-69
2022/07/04 01:37:30;;;;;;;1.77;1.20;;;18.70;58.30;;;;;;5089097;28;20528;-69
2022/07/04 01:39:56;;;;;;;1.53;1.43;;;18.70;58.40;;;;;;5088905;28;20437;-69
2022/07/04 01:42:23;;;;;;;1.40;1.30;;;18.70;58.60;;;;;;5087145;28;20451;-69
2022/07/04 01:44:50;;;;;;;2.27;1.40;;;18.60;58.50;;;;;;5083869;28;20556;-69
2022/07/04 01:47:17;;;;;;;1.40;1.30;;;18.60;58.60;;;;;;5087327;28;20433;-68
2022/07/04 01:49:44;;;;;;;4.40;1.47;;;18.60;58.80;;;;;;5087515;28;20445;-69
2022/07/04 01:52:10;;;;;;;2.37;1.80;;;18.50;58.90;;;;;;5088016;28;20441;-69
2022/07/04 01:54:38;;;;;;;1.33;1.23;;;18.50;59.00;;;;;;5087475;28;20460;-68
2022/07/04 01:57:06;;;;;;;1.40;1.30;;;18.50;59.30;;;;;;5086787;28;20930;-69
2022/07/04 02:02:17;;;;;;;2.13;1.30;;;18.40;59.30;;;;;;5087996;28;20451;-68
2022/07/04 02:04:44;;;;;;;1.87;1.53;;;18.30;59.20;;;;;;5088832;28;20556;-69
2022/07/04 02:07:11;;;;;;;1.20;1.10;;;18.40;59.30;;;;;;5088724;28;20445;-69
2022/07/04 02:09:39;;;;;;;1.40;1.20;;;18.30;59.40;;;;;;5088557;28;20841;-69
2022/07/04 02:14:56;;;;;;;1.63;1.20;;;18.30;59.60;;;;;;5077089;28;20457;-69
2022/07/04 02:17:23;;;;;;;2.60;1.70;;;18.20;59.60;;;;;;5087586;28;20437;-69
2022/07/04 02:19:49;;;;;;;1.93;1.40;;;18.20;59.70;;;;;;5087130;28;20519;-69
2022/07/04 02:22:16;;;;;;;2.40;1.37;;;18.10;59.70;;;;;;5086048;28;20437;-69
2022/07/04 02:24:44;;;;;;;1.87;1.40;;;18.10;59.90;;;;;;5086196;28;20492;-68
2022/07/04 02:27:11;;;;;;;3.50;1.30;;;18.10;59.90;;;;;;5087159;28;20864;-69
2022/07/04 02:29:38;;;;;;;2.60;1.20;;;18.10;60.00;;;;;;5087392;28;20509;-69
2022/07/04 02:32:06;;;;;;;3.60;1.70;;;18.10;60.20;;;;;;5086835;28;20433;-69
2022/07/04 02:34:33;;;;;;;2.87;1.40;;;18.10;60.30;;;;;;5087267;28;20471;-69
2022/07/04 02:37:01;;;;;;;2.73;1.53;;;18.00;60.30;;;;;;5086742;28;20452;-69
2022/07/04 02:39:27;;;;;;;1.70;1.33;;;18.00;60.50;;;;;;5085757;28;20447;-69
2022/07/04 02:41:56;;;;;;;2.93;1.80;;;18.00;60.50;;;;;;5086234;28;20459;-68
2022/07/04 02:44:22;;;;;;;6.40;1.70;;;17.90;60.40;;;;;;5087006;28;20553;-69
2022/07/04 02:46:49;;;;;;;1.67;1.57;;;17.90;60.60;;;;;;5087199;28;20437;-68
2022/07/04 02:49:16;;;;;;;4.17;1.60;;;17.90;60.60;;;;;;5087183;28;20453;-68
2022/07/04 02:51:43;;;;;;;1.30;1.20;;;17.80;60.80;;;;;;5087316;28;20453;-68
2022/07/04 02:54:10;;;;;;;2.37;1.50;;;17.80;60.80;;;;;;5086709;28;20471;-68
2022/07/04 02:56:36;;;;;;;6.53;2.23;;;17.80;60.90;;;;;;5085924;28;20444;-69
2022/07/04 02:59:04;;;;;;;5.90;3.40;;;17.80;61.20;;;;;;5087130;28;20448;-68
2022/07/04 03:01:32;;;;;;;7.37;3.53;;;17.70;61.30;;;;;;5087005;28;20457;-68
2022/07/04 03:03:58;;;;;;;9.43;5.03;;;17.70;61.40;;;;;;5087376;28;20543;-70
2022/07/04 03:06:25;;;;;;;12.67;5.90;;;17.70;61.70;;;;;;5086470;28;20813;-68
2022/07/04 03:08:52;;;;;;;7.20;4.40;;;17.60;61.70;;;;;;5087095;28;20456;-68
2022/07/04 03:11:19;;;;;;;11.17;5.63;;;17.60;61.90;;;;;;5086968;28;20478;-68
2022/07/04 03:13:46;;;;;;;13.47;7.53;;;17.60;62.20;;;;;;5086916;28;20467;-68
2022/07/04 03:16:14;;;;;;;11.00;5.60;;;17.50;62.50;;;;;;5086818;28;20445;-68
2022/07/04 03:18:41;;;;;;;9.07;4.30;;;17.50;62.80;;;;;;5087149;28;20441;-68
2022/07/04 03:21:08;;;;;;;4.47;2.40;;;17.50;62.90;;;;;;5086950;28;20451;-68
2022/07/04 03:23:35;;;;;;;2.37;1.70;;;17.40;63.00;;;;;;5086346;28;20857;-68
2022/07/04 03:26:02;;;;;;;2.77;1.87;;;17.40;63.50;;;;;;5086420;28;20448;-68
2022/07/04 03:28:29;;;;;;;2.40;1.97;;;17.30;63.40;;;;;;5086737;28;20440;-68
2022/07/04 03:30:56;;;;;;;3.90;2.20;;;17.30;63.50;;;;;;5086639;28;20444;-68
2022/07/04 03:33:24;;;;;;;4.90;2.40;;;17.20;63.50;;;;;;5086763;28;20441;-68
2022/07/04 03:35:51;;;;;;;2.53;2.20;;;17.20;63.60;;;;;;5086297;28;20459;-68
2022/07/04 03:38:18;;;;;;;5.10;1.60;;;17.20;63.90;;;;;;5083247;28;20448;-68
2022/07/04 03:40:44;;;;;;;4.53;1.73;;;17.20;64.00;;;;;;5081432;28;20820;-69
2022/07/04 03:43:11;;;;;;;3.77;2.13;;;17.20;64.20;;;;;;5084814;28;20451;-69
2022/07/04 03:45:38;;;;;;;3.00;2.03;;;17.20;64.60;;;;;;5085800;28;20894;-69
2022/07/04 03:48:05;;;;;;;2.70;1.77;;;17.20;64.70;;;;;;5086047;28;20904;-69
2022/07/04 03:50:33;;;;;;;6.47;2.70;;;17.20;64.80;;;;;;5085126;28;20429;-69
2022/07/04 03:53:00;;;;;;;5.50;1.70;;;17.10;64.70;;;;;;5085447;28;20452;-69
2022/07/04 03:55:27;;;;;;;5.53;2.50;;;17.20;65.20;;;;;;5085825;28;20464;-69
2022/07/04 03:57:53;;;;;;;9.57;2.20;;;17.20;65.40;;;;;;5085094;28;20450;-69
2022/07/04 04:00:20;;;;;;;14.57;3.03;;;17.20;65.60;;;;;;5083688;28;20532;-69
2022/07/04 04:02:47;;;;;;;7.97;2.47;;;17.20;65.90;;;;;;5084293;28;20510;-69
2022/07/04 04:05:30;;;;;;;7.03;2.57;;;17.20;66.20;;;;;;5084434;28;20489;-69
2022/07/04 04:07:59;;;;;;;19.00;4.10;;;17.10;66.40;;;;;;5085416;28;20443;-69
2022/07/04 04:10:27;;;;;;;8.77;2.10;;;17.10;66.70;;;;;;5085038;28;20449;-69
2022/07/04 04:12:54;;;;;;;9.23;2.50;;;17.10;67.10;;;;;;5081927;28;20463;-69
2022/07/04 04:15:21;;;;;;;9.10;2.57;;;17.10;67.40;;;;;;5084067;28;20464;-69
2022/07/04 04:17:47;;;;;;;8.40;2.50;;;17.10;67.50;;;;;;5084711;28;20990;-69
2022/07/04 04:20:14;;;;;;;16.93;2.70;;;17.00;67.70;;;;;;5083993;28;20457;-69
2022/07/04 04:22:41;;;;;;;10.87;2.73;;;17.10;68.00;;;;;;5085266;28;20452;-69
2022/07/04 04:25:10;;;;;;;13.53;3.20;;;17.10;68.30;;;;;;5090702;28;20503;-69
2022/07/04 04:27:37;;;;;;;7.90;2.67;;;17.10;68.90;;;;;;5091070;28;20437;-69
2022/07/04 04:30:05;;;;;;;11.47;2.87;;;17.10;69.70;;;;;;5089416;28;20520;-69
2022/07/04 04:32:31;;;;;;;5.43;2.50;;;17.10;70.10;;;;;;5090098;28;20516;-69
2022/07/04 04:34:59;;;;;;;8.50;3.03;;;17.20;70.60;;;;;;5089069;28;20456;-69
2022/07/04 04:37:25;;;;;;;9.80;3.40;;;17.20;71.30;;;;;;5090874;28;20448;-69
2022/07/04 04:39:52;;;;;;;6.23;2.97;;;17.30;71.70;;;;;;5091030;28;20448;-69
2022/07/04 04:42:20;;;;;;;13.23;3.43;;;17.30;72.00;;;;;;5090923;28;20460;-69
2022/07/04 04:44:47;;;;;;;10.03;3.43;;;17.40;72.20;;;;;;5091145;28;20495;-69
2022/07/04 04:47:14;;;;;;;7.63;2.73;;;17.50;72.10;;;;;;5091765;28;20531;-69
2022/07/04 04:49:41;;;;;;;7.37;2.57;;;17.50;72.10;;;;;;5091629;28;20468;-69
2022/07/04 04:52:09;;;;;;;8.07;2.60;;;17.60;72.60;;;;;;5092013;28;20452;-69
2022/07/04 04:54:36;;;;;;;9.57;2.77;;;17.60;73.00;;;;;;5092088;28;20464;-69
2022/07/04 04:57:03;;;;;;;6.00;2.60;;;17.60;73.10;;;;;;5091349;28;20456;-69
2022/07/04 04:59:32;;;;;;;7.17;2.67;;;17.60;72.20;;;;;;5091961;28;20449;-68
2022/07/04 05:01:59;;;;;;;9.70;3.20;;;17.70;73.80;;;;;;5091678;28;20524;-69
2022/07/04 05:04:26;;;;;;;7.33;2.97;;;17.60;73.80;;;;;;5090116;28;20484;-69
2022/07/04 05:06:53;;;;;;;4.47;2.60;;;17.70;74.20;;;;;;5090944;28;20444;-69
2022/07/04 05:09:20;;;;;;;9.23;3.10;;;17.70;74.50;;;;;;5090518;28;20448;-69
2022/07/04 05:11:47;;;;;;;12.80;2.90;;;17.70;74.00;;;;;;5091038;28;20451;-69
2022/07/04 05:14:14;;;;;;;6.67;2.83;;;17.70;74.30;;;;;;5091015;28;20463;-69
2022/07/04 05:16:43;;;;;;;5.63;2.70;;;17.80;75.00;;;;;;5080548;28;20463;-68
2022/07/04 05:19:10;;;;;;;8.30;2.50;;;17.80;75.30;;;;;;5082859;28;20449;-68
2022/07/04 05:21:37;;;;;;;9.50;2.50;;;17.80;74.80;;;;;;5090194;28;20479;-68
2022/07/04 05:24:04;;;;;;;4.67;2.77;;;17.80;74.20;;;;;;5089692;28;20491;-69
2022/07/04 05:26:31;;;;;;;8.23;3.10;;;17.80;75.30;;;;;;5090605;28;20444;-68
2022/07/04 05:28:58;;;;;;;7.13;2.27;;;17.90;74.30;;;;;;5090419;28;20480;-68
2022/07/04 05:31:25;;;;;;;18.33;3.30;;;17.90;74.50;;;;;;5090212;28;20448;-69
2022/07/04 05:33:54;;;;;;;10.33;2.80;;;18.00;74.50;;;;;;5090197;28;20522;-68
2022/07/04 05:36:21;;;;;;;6.80;2.80;;;18.10;74.00;;;;;;5090701;28;20441;-69
2022/07/04 05:38:48;;;;;;;9.93;3.03;;;18.20;73.80;;;;;;5090371;28;20547;-69
2022/07/04 05:41:15;;;;;;;9.10;2.70;;;18.20;73.40;;;;;;5089021;28;20455;-69
2022/07/04 05:43:42;;;;;;;6.73;2.17;;;18.30;74.90;;;;;;5090841;28;20472;-69
2022/07/04 05:46:09;;;;;;;8.47;2.57;;;18.40;74.70;;;;;;5090444;28;20452;-69
2022/07/04 05:48:36;;;;;;;5.00;2.13;;;18.50;75.00;;;;;;5089482;28;20449;-69
2022/07/04 05:51:04;;;;;;;5.90;2.10;;;18.50;75.00;;;;;;5089536;28;20459;-69
2022/07/04 05:53:31;;;;;;;5.63;2.23;;;18.60;73.90;;;;;;5089516;28;20522;-69
2022/07/04 05:55:58;;;;;;;7.20;2.43;;;18.60;74.10;;;;;;5088934;28;20453;-69
2022/07/04 05:58:25;;;;;;;10.50;2.03;;;18.70;74.00;;;;;;5090076;28;20452;-69
2022/07/04 06:00:52;;;;;;;9.10;2.03;;;18.80;74.60;;;;;;5089454;28;20457;-69
2022/07/04 06:03:19;;;;;;;8.97;2.30;;;18.80;72.60;;;;;;5089104;28;20453;-69
2022/07/04 06:05:46;;;;;;;3.83;1.63;;;18.80;71.90;;;;;;5087625;28;20480;-69
2022/07/04 06:08:14;;;;;;;10.83;2.40;;;18.90;72.30;;;;;;5086332;28;20456;-69
2022/07/04 06:10:41;;;;;;;8.30;1.93;;;19.00;72.90;;;;;;5084707;28;20821;-69
2022/07/04 06:13:08;;;;;;;6.13;2.30;;;19.00;71.50;;;;;;5084409;28;20455;-69
2022/07/04 06:15:35;;;;;;;6.30;2.30;;;19.10;72.60;;;;;;5085813;28;20476;-70
2022/07/04 06:18:02;;;;;;;3.23;1.77;;;19.10;71.80;;;;;;5087076;28;20471;-69
2022/07/04 06:20:29;;;;;;;5.57;1.90;;;19.10;71.80;;;;;;5086542;28;20455;-69
2022/07/04 06:22:56;;;;;;;2.10;1.60;;;19.20;71.90;;;;;;5087387;28;20502;-69
2022/07/04 06:25:24;;;;;;;5.60;1.70;;;19.20;70.50;;;;;;5086840;28;20489;-69
2022/07/04 06:27:52;;;;;;;2.17;1.60;;;19.30;70.50;;;;;;5086898;28;20804;-69
2022/07/04 06:30:20;;;;;;;4.60;2.00;;;19.30;68.80;;;;;;5087283;28;20444;-69
2022/07/04 06:32:48;;;;;;;7.20;2.23;;;19.30;68.90;;;;;;5086836;28;20467;-69
2022/07/04 06:38:03;;;;;;;4.00;1.40;;;19.50;69.60;;;;;;5086633;28;20839;-69
2022/07/04 06:40:31;;;;;;;9.63;2.10;;;19.70;68.60;;;;;;5087360;28;20447;-69
2022/07/04 06:42:58;;;;;;;8.27;2.30;;;19.70;67.70;;;;;;5087799;28;20452;-69
2022/07/04 06:45:25;;;;;;;4.70;1.77;;;19.80;66.60;;;;;;5086672;28;20499;-69
2022/07/04 06:47:52;;;;;;;3.63;1.37;;;19.70;66.40;;;;;;5087005;28;20456;-69
2022/07/04 06:50:18;;;;;;;5.40;1.53;;;19.80;67.30;;;;;;5087143;28;20429;-69
2022/07/04 06:52:45;;;;;;;8.70;1.47;;;20.00;66.20;;;;;;5087587;28;20453;-69
2022/07/04 06:55:12;;;;;;;4.10;1.40;;;20.20;66.30;;;;;;5086891;28;20460;-69
2022/07/04 06:57:40;;;;;;;3.40;1.03;;;20.30;66.30;;;;;;5086724;28;20455;-69
2022/07/04 07:00:09;;;;;;;9.37;1.10;;;20.50;65.40;;;;;;5087701;28;20428;-69
2022/07/04 07:02:36;;;;;;;2.63;1.03;;;20.70;65.40;;;;;;5086702;28;20461;-69
2022/07/04 07:05:03;;;;;;;3.30;1.10;;;20.80;63.10;;;;;;5086988;28;20481;-69
2022/07/04 07:07:30;;;;;;;1.53;0.83;;;20.90;62.10;;;;;;5086738;28;20498;-69
2022/07/04 07:09:57;;;;;;;8.03;1.40;;;21.10;63.10;;;;;;5086038;28;20455;-69
2022/07/04 07:12:24;;;;;;;3.33;1.07;;;21.20;60.90;;;;;;5087024;28;20444;-69
2022/07/04 07:14:53;;;;;;;3.77;0.80;;;21.40;59.80;;;;;;5086871;28;20475;-69
2022/07/04 07:17:19;;;;;;;5.03;1.07;;;21.50;59.30;;;;;;5086314;28;20476;-69
2022/07/04 07:19:46;;;;;;;2.23;1.00;;;21.50;58.80;;;;;;5083513;28;20441;-69
2022/07/04 07:22:14;;;;;;;2.07;0.97;;;21.60;59.50;;;;;;5081986;28;20448;-69
2022/07/04 07:24:41;;;;;;;3.47;1.00;;;21.80;59.00;;;;;;5084673;28;20484;-69
2022/07/04 07:27:08;;;;;;;4.00;1.37;;;22.00;58.80;;;;;;5084394;28;20448;-69
2022/07/04 07:29:36;;;;;;;5.20;1.17;;;22.10;57.70;;;;;;5085749;28;20444;-70
2022/07/04 07:32:05;;;;;;;5.93;1.07;;;22.30;57.10;;;;;;5080950;28;20453;-70
2022/07/04 07:34:32;;;;;;;4.17;1.10;;;22.40;56.70;;;;;;5077279;28;20461;-70
2022/07/04 07:37:00;;;;;;;5.70;1.07;;;22.60;57.40;;;;;;5080891;28;20966;-70
2022/07/04 07:39:27;;;;;;;2.90;0.90;;;22.60;56.30;;;;;;5083550;28;20799;-70
2022/07/04 07:41:53;;;;;;;4.93;0.90;;;22.70;56.50;;;;;;5082234;28;20458;-70
2022/07/04 07:44:20;;;;;;;2.37;0.70;;;22.80;56.00;;;;;;5081040;28;20483;-70
2022/07/04 07:46:47;;;;;;;5.33;1.07;;;22.90;54.90;;;;;;5082581;28;20431;-70
2022/07/04 07:49:15;;;;;;;8.37;1.00;;;23.10;54.60;;;;;;5084631;28;20461;-69
2022/07/04 07:51:42;;;;;;;6.20;1.37;;;23.10;54.20;;;;;;5085455;28;20456;-70
2022/07/04 07:54:09;;;;;;;5.07;1.20;;;23.20;54.60;;;;;;5084387;28;20567;-70
2022/07/04 07:56:35;;;;;;;5.80;1.00;;;23.30;53.80;;;;;;5085114;28;20449;-70
2022/07/04 07:59:02;;;;;;;5.70;0.70;;;23.40;54.20;;;;;;5084618;28;20413;-70
2022/07/04 08:01:29;;;;;;;6.30;1.10;;;23.50;53.80;;;;;;5083981;28;20477;-70
2022/07/04 08:06:42;;;;;;;2.17;0.93;;;23.90;51.50;;;;;;5084267;28;20487;-69
2022/07/04 08:09:09;;;;;;;5.33;0.70;;;24.10;51.70;;;;;;5083615;28;20506;-70
2022/07/04 08:11:36;;;;;;;4.43;0.70;;;24.20;51.00;;;;;;5084311;28;20448;-70
2022/07/04 08:14:03;;;;;;;2.50;0.70;;;24.30;51.30;;;;;;5083068;28;20860;-70
2022/07/04 08:16:29;;;;;;;2.83;0.80;;;24.50;51.20;;;;;;5082924;28;20431;-70
2022/07/04 08:18:56;;;;;;;5.50;1.07;;;24.50;50.00;;;;;;5083340;28;20448;-70
2022/07/04 08:21:23;;;;;;;2.93;1.40;;;24.60;51.10;;;;;;5083775;28;20429;-70
2022/07/04 08:23:51;;;;;;;3.50;1.23;;;24.70;49.30;;;;;;5082877;28;20532;-70
2022/07/04 08:26:18;;;;;;;1.27;0.90;;;24.60;50.50;;;;;;5083294;28;20487;-70
2022/07/04 08:28:45;;;;;;;1.87;0.80;;;24.60;51.00;;;;;;5083724;28;20437;-70
2022/07/04 08:31:11;;;;;;;2.97;0.80;;;24.60;51.10;;;;;;5083526;28;20973;-70
2022/07/04 08:33:38;;;;;;;2.00;0.80;;;24.80;49.60;;;;;;5083564;28;20475;-70
2022/07/04 08:36:06;;;;;;;5.00;1.03;;;24.90;49.70;;;;;;5082744;28;20458;-70
2022/07/04 08:38:32;;;;;;;1.93;0.80;;;25.10;50.20;;;;;;5084743;28;20452;-70
2022/07/04 08:41:04;;;;;;;2.90;0.90;;;25.30;48.50;;;;;;5083548;28;20498;-70
2022/07/04 08:43:33;;;;;;;3.13;1.10;;;25.30;46.90;;;;;;5083611;28;20475;-70
2022/07/04 08:46:01;;;;;;;1.83;0.90;;;25.50;47.70;;;;;;5082111;28;20508;-70
2022/07/04 08:48:27;;;;;;;5.13;0.87;;;25.70;47.10;;;;;;5074588;28;20433;-70
2022/07/04 08:50:58;;;;;;;2.63;0.87;;;25.90;47.20;;;;;;5077251;28;20452;-70
2022/07/04 08:53:28;;;;;;;8.13;1.30;;;26.10;47.30;;;;;;5081572;28;20483;-70
2022/07/04 08:58:43;;;;;;;4.00;1.30;;;26.60;46.50;;;;;;5082811;28;20868;-70
2022/07/04 09:01:14;;;;;;;3.67;1.27;;;26.70;42.50;;;;;;5081690;28;20555;-70
2022/07/04 09:03:43;;;;;;;4.30;1.00;;;26.60;42.00;;;;;;5081408;28;20468;-70
2022/07/04 09:06:10;;;;;;;2.37;0.87;;;26.60;42.80;;;;;;5082328;28;20476;-70
2022/07/04 09:08:38;;;;;;;1.97;1.07;;;26.60;41.50;;;;;;5083697;28;20449;-70
2022/07/04 09:11:05;;;;;;;3.70;1.20;;;26.60;43.40;;;;;;5085863;28;20460;-70
2022/07/04 09:13:33;;;;;;;2.43;1.00;;;26.70;42.70;;;;;;5086144;28;20472;-70
2022/07/04 09:16:02;;;;;;;1.43;0.80;;;26.90;40.80;;;;;;5086977;28;20908;-70
2022/07/04 09:18:30;;;;;;;2.67;1.10;;;26.90;39.70;;;;;;5087303;28;20463;-70
2022/07/04 09:20:58;;;;;;;1.03;0.80;;;27.20;40.80;;;;;;5087024;28;20437;-70
2022/07/04 09:23:27;;;;;;;2.30;1.10;;;27.50;40.10;;;;;;5086582;28;20859;-70
2022/07/04 09:26:10;;;;;;;3.63;1.20;;;27.50;40.30;;;;;;5086284;28;20480;-70
2022/07/04 09:28:37;;;;;;;2.20;1.23;;;27.60;40.20;;;;;;5087456;28;20876;-70
2022/07/04 09:31:16;;;;;;;3.00;1.30;;;28.00;39.10;;;;;;5088091;28;20433;-70
2022/07/04 09:33:49;;;;;;;3.80;1.17;;;28.50;38.00;;;;;;5088405;28;20862;-70
2022/07/04 09:36:17;;;;;;;2.00;1.00;;;29.00;37.30;;;;;;5087486;28;20466;-70
2022/07/04 09:38:44;;;;;;;5.23;1.47;;;29.00;37.10;;;;;;5085439;28;20920;-70
2022/07/04 09:41:29;;;;;;;1.90;0.80;;;29.00;37.00;;;;;;5085341;28;20452;-70
2022/07/04 09:44:01;;;;;;;1.07;0.70;;;28.70;37.60;;;;;;5086434;28;20469;-70
2022/07/04 09:46:29;;;;;;;2.30;1.17;;;28.60;36.50;;;;;;5086394;28;20530;-70
2022/07/04 09:48:56;;;;;;;4.00;1.53;;;28.80;37.50;;;;;;5085907;28;20451;-70
2022/07/04 09:51:37;;;;;;;4.23;1.67;;;28.80;38.30;;;;;;5086951;28;20453;-70
2022/07/04 09:54:14;;;;;;;4.23;1.07;;;29.10;36.60;;;;;;5087870;28;20464;-70
2022/07/04 09:56:42;;;;;;;4.97;0.80;;;29.40;35.00;;;;;;5086494;28;20433;-70
2022/07/04 09:59:09;;;;;;;6.03;1.20;;;29.70;35.30;;;;;;5086541;28;20453;-70
2022/07/04 10:01:39;;;;;;;2.93;0.90;;;30.20;35.20;;;;;;5086467;28;20484;-70
2022/07/04 10:04:06;;;;;;;3.33;0.80;;;30.30;33.90;;;;;;5085085;28;21006;-70
2022/07/04 10:06:34;;;;;;;2.93;1.27;;;30.20;34.90;;;;;;5085501;28;20477;-70
2022/07/04 10:09:09;;;;;;;1.40;0.87;;;30.10;34.10;;;;;;5085751;28;20447;-70
2022/07/04 10:11:38;;;;;;;2.73;1.00;;;30.10;33.20;;;;;;5087266;28;20433;-70
2022/07/04 10:14:05;;;;;;;1.93;0.90;;;30.40;34.70;;;;;;5086646;28;20453;-70
2022/07/04 10:16:32;;;;;;;4.87;1.00;;;30.90;35.10;;;;;;5086638;28;20440;-68
2022/07/04 10:19:00;;;;;;;3.07;1.00;;;31.20;31.70;;;;;;5086252;28;20452;-68
2022/07/04 10:21:28;;;;;;;4.03;1.30;;;31.30;31.30;;;;;;5086817;28;20424;-68
2022/07/04 10:23:54;;;;;;;1.37;0.87;;;31.40;32.00;;;;;;5082855;28;20845;-68
2022/07/04 10:26:22;;;;;;;3.00;1.27;;;31.60;31.40;;;;;;5083463;28;20464;-68
2022/07/04 10:28:51;;;;;;;3.13;0.97;;;32.10;31.70;;;;;;5083841;28;20943;-68
2022/07/04 10:31:19;;;;;;;7.20;1.10;;;32.70;30.90;;;;;;5086289;28;20428;-68
2022/07/04 10:33:47;;;;;;;4.30;1.47;;;33.10;30.90;;;;;;5083938;28;20845;-69
2022/07/04 10:36:20;;;;;;;2.20;1.23;;;33.20;29.20;;;;;;5082506;28;20516;-69
2022/07/04 10:38:48;;;;;;;1.87;1.10;;;32.70;29.50;;;;;;5083900;28;20441;-68
2022/07/04 10:41:15;;;;;;;2.20;1.10;;;32.40;30.40;;;;;;5084481;28;20448;-68
2022/07/04 10:44:02;;;;;;;3.30;1.00;;;32.60;30.90;;;;;;5084156;28;20460;-68
2022/07/04 10:46:36;;;;;;;1.50;1.40;;;33.40;29.20;;;;;;5083744;28;20515;-68
2022/07/04 10:49:07;;;;;;;2.83;1.20;;;33.50;28.20;;;;;;5085456;28;20444;-68
2022/07/04 10:51:39;;;;;;;3.63;1.10;;;34.00;29.90;;;;;;5084277;28;20947;-68
2022/07/04 10:54:07;;;;;;;2.70;1.40;;;34.70;28.70;;;;;;5082280;28;20525;-68
2022/07/04 10:56:40;;;;;;;1.23;1.07;;;34.80;27.40;;;;;;5081440;28;20476;-69
2022/07/04 10:59:13;;;;;;;3.23;1.50;;;34.00;27.10;;;;;;5082598;28;20934;-69
2022/07/04 11:01:40;;;;;;;2.87;1.40;;;33.40;29.10;;;;;;5083416;28;20464;-68
2022/07/04 11:04:07;;;;;;;2.83;1.50;;;33.50;28.90;;;;;;5081416;28;20471;-68
2022/07/04 11:06:55;;;;;;;3.80;1.30;;;33.90;27.80;;;;;;5083710;28;21051;-68
2022/07/04 11:09:23;;;;;;;3.03;1.03;;;34.80;27.10;;;;;;5082794;28;20445;-68
2022/07/04 11:11:52;;;;;;;3.30;1.50;;;35.20;26.70;;;;;;5078013;28;20459;-69
2022/07/04 11:14:37;;;;;;;4.13;1.23;;;34.50;26.70;;;;;;5079735;28;20479;-69
2022/07/04 11:17:05;;;;;;;3.93;1.30;;;33.80;28.40;;;;;;5083042;28;20423;-68
2022/07/04 11:19:31;;;;;;;4.53;1.60;;;34.00;27.30;;;;;;5083888;28;20455;-68
2022/07/04 11:22:00;;;;;;;2.07;1.13;;;34.50;26.10;;;;;;5081340;28;20865;-68
2022/07/04 11:24:28;;;;;;;1.97;0.90;;;35.30;27.10;;;;;;5080001;28;20551;-68
2022/07/04 11:26:55;;;;;;;4.03;1.30;;;35.90;25.30;;;;;;5079115;28;20826;-68
2022/07/04 11:29:22;;;;;;;3.53;1.30;;;36.80;25.40;;;;;;5077196;28;20473;-68
2022/07/04 11:31:52;;;;;;;4.30;1.40;;;37.40;23.80;;;;;;5075858;28;20916;-68
2022/07/04 11:34:19;;;;;;;2.60;1.00;;;37.50;23.90;;;;;;5082427;28;20470;-68
2022/07/04 11:36:48;;;;;;;2.37;0.93;;;37.70;22.50;;;;;;5082833;28;20440;-68
2022/07/04 11:39:19;;;;;;;2.30;1.00;;;38.10;22.90;;;;;;5081805;28;20690;-68
2022/07/04 11:47:20;;;;;;;3.30;0.80;;;38.80;20.00;;;;;;5081046;28;20295;-69
2022/07/04 11:49:49;;;;;;;3.10;0.80;;;38.50;20.80;;;;;;5080703;28;20186;-69
2022/07/04 11:52:18;;;;;;;2.50;0.93;;;38.40;20.30;;;;;;5081663;28;20202;-69
2022/07/04 11:54:47;;;;;;;3.73;1.30;;;38.50;20.30;;;;;;5079511;28;20249;-69
2022/07/04 11:57:20;;;;;;;4.13;1.10;;;38.70;21.00;;;;;;5080686;28;20182;-69
2022/07/04 11:59:55;;;;;;;4.28;1.20;;;39.40;21.10;;;;;;5081055;28;20196;-69
2022/07/04 12:02:23;;;;;;;2.03;1.25;;;40.20;20.50;;;;;;5080337;28;20213;-69
2022/07/04 12:04:50;;;;;;;1.50;0.77;;;40.70;19.70;;;;;;5079136;28;20218;-69
2022/07/04 12:07:18;;;;;;;2.20;1.00;;;41.10;18.70;;;;;;5079107;28;20222;-69
2022/07/04 12:09:48;;;;;;;3.10;1.38;;;40.80;18.80;;;;;;5080919;28;20212;-69
2022/07/04 12:12:17;;;;;;;3.33;1.08;;;40.00;19.70;;;;;;5079626;28;20205;-69
2022/07/04 12:15:01;;;;;;;1.40;0.93;;;39.10;20.90;;;;;;5079503;28;20248;-69
2022/07/04 12:17:33;;;;;;;3.00;1.10;;;38.00;21.60;;;;;;5080166;28;20186;-69
2022/07/04 12:20:03;;;;;;;3.50;1.27;;;37.40;23.00;;;;;;5075839;28;20584;-69
2022/07/04 12:22:35;;;;;;;3.57;1.30;;;36.80;23.20;;;;;;5074442;28;20202;-69
2022/07/04 12:25:06;;;;;;;3.07;0.70;;;35.80;22.80;;;;;;5078166;28;20900;-69
2022/07/04 12:27:33;;;;;;;2.70;0.80;;;35.30;23.70;;;;;;5078414;28;20468;-70
2022/07/04 12:30:01;;;;;;;2.30;0.80;;;35.20;23.80;;;;;;5079186;28;20462;-70
2022/07/04 12:32:51;;;;;;;1.77;1.00;;;34.70;23.40;;;;;;5080005;28;20455;-70
2022/07/04 12:35:39;;;;;;;1.43;1.20;;;34.00;24.10;;;;;;5080241;28;20471;-69
2022/07/04 12:38:08;;;;;;;5.10;1.00;;;34.00;24.70;;;;;;5080466;28;20810;-69
2022/07/04 12:40:37;;;;;;;3.97;1.00;;;34.20;25.40;;;;;;5082500;28;20488;-69
2022/07/04 12:45:44;;;;;;;1.60;0.93;;;36.40;23.50;;;;;;5008115;23;20578;-69
2022/07/04 12:48:24;;;;;;;3.80;1.00;;;37.90;21.80;;;;;;5002111;28;20435;-69
2022/07/04 12:50:53;;;;;;;2.42;0.90;;;38.90;20.60;;;;;;5002562;28;20195;-69
2022/07/04 12:53:20;;;;;;;4.28;1.23;;;39.50;20.90;;;;;;5001322;28;20209;-69
2022/07/04 12:55:49;;;;;;;6.85;1.15;;;40.10;20.90;;;;;;5000342;28;20208;-69
2022/07/04 12:58:17;;;;;;;1.40;0.82;;;40.80;19.40;;;;;;5001456;28;20211;-69
2022/07/04 13:00:43;;;;;;;3.38;1.20;;;41.40;18.60;;;;;;4999848;28;20207;-69
2022/07/04 13:03:10;;;;;;;1.67;0.88;;;40.70;17.90;;;;;;5000368;28;20204;-69
2022/07/04 13:05:38;;;;;;;1.85;0.75;;;39.50;18.70;;;;;;5000884;28;20201;-70
2022/07/04 13:08:06;;;;;;;2.20;1.07;;;38.40;20.90;;;;;;5000821;28;20225;-70
2022/07/04 13:10:33;;;;;;;2.33;1.00;;;37.40;22.20;;;;;;4999810;28;20204;-69
2022/07/04 13:13:02;;;;;;;3.03;1.20;;;36.60;23.10;;;;;;4999605;28;20201;-69